Terminal Aerodrome Forecast
Issued by NWS Twin Cities, MN

Home | Current Version | Previous Version | Text Only | Print | Product List | Glossary Off
Versions: 1 2 3 4 5 6 7 8 9 10 11 12 13 14

632
FTUS43 KMPX 240525
TAFSTC
TAF
KSTC 240525Z 2406/2506 18008KT P6SM VCSH OVC025
     FM240800 21003KT 5SM BR SCT007 BKN015
      TEMPO 2409/2412 BKN009 OVC020
     FM241400 29009KT P6SM FEW025 SCT100
     FM241800 28012G20KT P6SM SKC
     FM250000 28007KT P6SM FEW250=

USA.gov is the U.S. government's official web portal to all federal, state and local government web resources and services.